sensor_id;sensor_type;location;lat;lon;timestamp;P1;durP1;ratioP1;P2;durP2;ratioP2
57593;SDS011;43423;46.510;6.686;2023-03-13T00:00:51;8.07;;;1.77;;
57593;SDS011;43423;46.510;6.686;2023-03-13T00:03:19;5.78;;;1.67;;
57593;SDS011;43423;46.510;6.686;2023-03-13T00:05:44;3.20;;;1.40;;
57593;SDS011;43423;46.510;6.686;2023-03-13T00:08:10;1.80;;;1.27;;
57593;SDS011;43423;46.510;6.686;2023-03-13T00:10:36;3.33;;;1.70;;
57593;SDS011;43423;46.510;6.686;2023-03-13T00:13:03;3.88;;;1.52;;
57593;SDS011;43423;46.510;6.686;2023-03-13T00:15:29;4.95;;;1.98;;
57593;SDS011;43423;46.510;6.686;2023-03-13T00:17:54;3.00;;;1.88;;
57593;SDS011;43423;46.510;6.686;2023-03-13T00:20:20;2.00;;;1.75;;
57593;SDS011;43423;46.510;6.686;2023-03-13T00:22:45;4.40;;;1.40;;
57593;SDS011;43423;46.510;6.686;2023-03-13T00:25:11;2.17;;;1.45;;
57593;SDS011;43423;46.510;6.686;2023-03-13T00:27:36;3.40;;;1.60;;
57593;SDS011;43423;46.510;6.686;2023-03-13T00:30:02;3.70;;;1.60;;
57593;SDS011;43423;46.510;6.686;2023-03-13T00:32:28;3.38;;;1.63;;
57593;SDS011;43423;46.510;6.686;2023-03-13T00:34:53;3.15;;;1.77;;
57593;SDS011;43423;46.510;6.686;2023-03-13T00:37:19;5.88;;;1.80;;
57593;SDS011;43423;46.510;6.686;2023-03-13T00:39:44;3.72;;;1.90;;
57593;SDS011;43423;46.510;6.686;2023-03-13T00:42:10;4.47;;;1.95;;
57593;SDS011;43423;46.510;6.686;2023-03-13T00:44:35;4.60;;;1.85;;
57593;SDS011;43423;46.510;6.686;2023-03-13T00:47:01;6.88;;;2.63;;
57593;SDS011;43423;46.510;6.686;2023-03-13T00:49:26;5.75;;;2.65;;
57593;SDS011;43423;46.510;6.686;2023-03-13T00:51:52;5.30;;;3.00;;
57593;SDS011;43423;46.510;6.686;2023-03-13T00:54:17;5.72;;;2.20;;
57593;SDS011;43423;46.510;6.686;2023-03-13T00:56:43;2.28;;;1.23;;
57593;SDS011;43423;46.510;6.686;2023-03-13T00:59:09;1.15;;;1.02;;
57593;SDS011;43423;46.510;6.686;2023-03-13T01:01:35;2.53;;;1.23;;
57593;SDS011;43423;46.510;6.686;2023-03-13T01:04:02;1.30;;;1.20;;
57593;SDS011;43423;46.510;6.686;2023-03-13T01:06:29;4.32;;;1.60;;
57593;SDS011;43423;46.510;6.686;2023-03-13T01:08:57;3.50;;;1.52;;
57593;SDS011;43423;46.510;6.686;2023-03-13T01:11:24;1.88;;;1.10;;
57593;SDS011;43423;46.510;6.686;2023-03-13T01:13:55;2.85;;;1.25;;
57593;SDS011;43423;46.510;6.686;2023-03-13T01:18:49;2.65;;;1.10;;
57593;SDS011;43423;46.510;6.686;2023-03-13T01:21:17;2.15;;;1.10;;
57593;SDS011;43423;46.510;6.686;2023-03-13T01:23:45;1.80;;;1.23;;
57593;SDS011;43423;46.510;6.686;2023-03-13T01:26:11;3.10;;;1.17;;
57593;SDS011;43423;46.510;6.686;2023-03-13T01:28:36;1.73;;;0.90;;
57593;SDS011;43423;46.510;6.686;2023-03-13T01:31:09;1.27;;;1.02;;
57593;SDS011;43423;46.510;6.686;2023-03-13T01:33:35;3.80;;;0.93;;
57593;SDS011;43423;46.510;6.686;2023-03-13T01:36:01;2.65;;;1.10;;
57593;SDS011;43423;46.510;6.686;2023-03-13T01:38:27;3.63;;;1.30;;
57593;SDS011;43423;46.510;6.686;2023-03-13T01:40:53;1.70;;;1.05;;
57593;SDS011;43423;46.510;6.686;2023-03-13T01:45:49;4.85;;;1.45;;
57593;SDS011;43423;46.510;6.686;2023-03-13T01:48:17;3.80;;;1.42;;
57593;SDS011;43423;46.510;6.686;2023-03-13T01:50:43;2.53;;;1.38;;
57593;SDS011;43423;46.510;6.686;2023-03-13T01:53:09;1.30;;;1.10;;
57593;SDS011;43423;46.510;6.686;2023-03-13T01:55:35;3.63;;;1.30;;
57593;SDS011;43423;46.510;6.686;2023-03-13T01:58:00;1.52;;;1.23;;
57593;SDS011;43423;46.510;6.686;2023-03-13T02:00:27;3.00;;;1.30;;
57593;SDS011;43423;46.510;6.686;2023-03-13T02:02:59;1.88;;;1.30;;
57593;SDS011;43423;46.510;6.686;2023-03-13T02:07:59;3.80;;;1.25;;
57593;SDS011;43423;46.510;6.686;2023-03-13T02:10:28;2.70;;;1.30;;
57593;SDS011;43423;46.510;6.686;2023-03-13T02:12:55;2.55;;;1.23;;
57593;SDS011;43423;46.510;6.686;2023-03-13T02:15:23;1.90;;;1.42;;
57593;SDS011;43423;46.510;6.686;2023-03-13T02:17:50;4.90;;;1.50;;
57593;SDS011;43423;46.510;6.686;2023-03-13T02:20:17;2.58;;;1.33;;
57593;SDS011;43423;46.510;6.686;2023-03-13T02:25:45;2.80;;;1.55;;
57593;SDS011;43423;46.510;6.686;2023-03-13T02:28:14;2.08;;;1.30;;
57593;SDS011;43423;46.510;6.686;2023-03-13T02:33:10;2.80;;;1.20;;
57593;SDS011;43423;46.510;6.686;2023-03-13T02:35:36;2.60;;;1.10;;
57593;SDS011;43423;46.510;6.686;2023-03-13T02:38:05;2.65;;;1.20;;
57593;SDS011;43423;46.510;6.686;2023-03-13T02:40:35;3.47;;;1.10;;
57593;SDS011;43423;46.510;6.686;2023-03-13T02:43:28;1.75;;;0.98;;
57593;SDS011;43423;46.510;6.686;2023-03-13T02:46:08;1.20;;;1.05;;
57593;SDS011;43423;46.510;6.686;2023-03-13T02:48:40;2.83;;;1.27;;
57593;SDS011;43423;46.510;6.686;2023-03-13T02:51:13;1.75;;;0.75;;
57593;SDS011;43423;46.510;6.686;2023-03-13T02:53:56;1.17;;;0.77;;
57593;SDS011;43423;46.510;6.686;2023-03-13T02:56:26;1.48;;;1.20;;
57593;SDS011;43423;46.510;6.686;2023-03-13T02:58:55;1.92;;;0.90;;
57593;SDS011;43423;46.510;6.686;2023-03-13T03:01:21;3.13;;;1.00;;
57593;SDS011;43423;46.510;6.686;2023-03-13T03:03:46;1.95;;;1.60;;
57593;SDS011;43423;46.510;6.686;2023-03-13T03:06:13;3.33;;;1.10;;
57593;SDS011;43423;46.510;6.686;2023-03-13T03:08:38;4.97;;;1.40;;
57593;SDS011;43423;46.510;6.686;2023-03-13T03:11:06;1.42;;;0.90;;
57593;SDS011;43423;46.510;6.686;2023-03-13T03:13:31;3.15;;;1.20;;
57593;SDS011;43423;46.510;6.686;2023-03-13T03:15:57;2.22;;;1.08;;
57593;SDS011;43423;46.510;6.686;2023-03-13T03:18:23;5.35;;;1.20;;
57593;SDS011;43423;46.510;6.686;2023-03-13T03:20:49;2.55;;;1.15;;
57593;SDS011;43423;46.510;6.686;2023-03-13T03:23:14;1.63;;;1.20;;
57593;SDS011;43423;46.510;6.686;2023-03-13T03:25:40;2.35;;;1.02;;
57593;SDS011;43423;46.510;6.686;2023-03-13T03:28:06;2.67;;;1.15;;
57593;SDS011;43423;46.510;6.686;2023-03-13T03:30:31;3.53;;;1.10;;
57593;SDS011;43423;46.510;6.686;2023-03-13T03:32:57;3.40;;;1.13;;
57593;SDS011;43423;46.510;6.686;2023-03-13T03:35:23;3.20;;;1.08;;
57593;SDS011;43423;46.510;6.686;2023-03-13T03:37:48;1.70;;;0.90;;
57593;SDS011;43423;46.510;6.686;2023-03-13T03:40:14;1.75;;;1.30;;
57593;SDS011;43423;46.510;6.686;2023-03-13T03:42:39;1.73;;;1.00;;
57593;SDS011;43423;46.510;6.686;2023-03-13T03:45:05;1.33;;;0.90;;
57593;SDS011;43423;46.510;6.686;2023-03-13T03:47:31;2.63;;;1.23;;
57593;SDS011;43423;46.510;6.686;2023-03-13T03:49:56;3.33;;;1.00;;
57593;SDS011;43423;46.510;6.686;2023-03-13T03:52:22;4.30;;;1.20;;
57593;SDS011;43423;46.510;6.686;2023-03-13T03:54:47;12.90;;;1.30;;
57593;SDS011;43423;46.510;6.686;2023-03-13T03:57:13;5.38;;;1.10;;
57593;SDS011;43423;46.510;6.686;2023-03-13T03:59:38;2.33;;;1.00;;
57593;SDS011;43423;46.510;6.686;2023-03-13T04:02:04;1.73;;;1.10;;
57593;SDS011;43423;46.510;6.686;2023-03-13T04:04:29;5.43;;;1.33;;
57593;SDS011;43423;46.510;6.686;2023-03-13T04:06:55;2.55;;;1.33;;
57593;SDS011;43423;46.510;6.686;2023-03-13T04:09:20;3.97;;;1.30;;
57593;SDS011;43423;46.510;6.686;2023-03-13T04:11:46;1.77;;;1.10;;
57593;SDS011;43423;46.510;6.686;2023-03-13T04:14:12;1.80;;;1.33;;
57593;SDS011;43423;46.510;6.686;2023-03-13T04:16:37;2.35;;;1.33;;
57593;SDS011;43423;46.510;6.686;2023-03-13T04:19:03;2.67;;;1.13;;
57593;SDS011;43423;46.510;6.686;2023-03-13T04:21:28;3.13;;;1.40;;
57593;SDS011;43423;46.510;6.686;2023-03-13T04:23:54;2.63;;;1.20;;
57593;SDS011;43423;46.510;6.686;2023-03-13T04:26:19;2.35;;;1.23;;
57593;SDS011;43423;46.510;6.686;2023-03-13T04:28:45;2.63;;;1.15;;
57593;SDS011;43423;46.510;6.686;2023-03-13T04:31:10;4.32;;;1.85;;
57593;SDS011;43423;46.510;6.686;2023-03-13T04:33:36;1.80;;;1.30;;
57593;SDS011;43423;46.510;6.686;2023-03-13T04:36:01;2.08;;;1.38;;
57593;SDS011;43423;46.510;6.686;2023-03-13T04:38:27;3.58;;;1.33;;
57593;SDS011;43423;46.510;6.686;2023-03-13T04:40:53;3.92;;;1.60;;
57593;SDS011;43423;46.510;6.686;2023-03-13T04:43:19;2.65;;;1.73;;
57593;SDS011;43423;46.510;6.686;2023-03-13T04:45:44;4.97;;;1.63;;
57593;SDS011;43423;46.510;6.686;2023-03-13T04:48:11;2.92;;;1.63;;
57593;SDS011;43423;46.510;6.686;2023-03-13T04:50:36;2.00;;;1.38;;
57593;SDS011;43423;46.510;6.686;2023-03-13T04:53:02;2.38;;;1.70;;
57593;SDS011;43423;46.510;6.686;2023-03-13T04:55:28;2.40;;;1.40;;
57593;SDS011;43423;46.510;6.686;2023-03-13T04:57:53;2.70;;;1.70;;
57593;SDS011;43423;46.510;6.686;2023-03-13T05:00:19;2.90;;;1.40;;
57593;SDS011;43423;46.510;6.686;2023-03-13T05:02:44;2.60;;;1.35;;
57593;SDS011;43423;46.510;6.686;2023-03-13T05:05:10;1.80;;;1.50;;
57593;SDS011;43423;46.510;6.686;2023-03-13T05:07:35;3.45;;;1.38;;
57593;SDS011;43423;46.510;6.686;2023-03-13T05:10:01;5.18;;;1.40;;
57593;SDS011;43423;46.510;6.686;2023-03-13T05:12:27;2.25;;;1.38;;
57593;SDS011;43423;46.510;6.686;2023-03-13T05:14:52;1.88;;;1.33;;
57593;SDS011;43423;46.510;6.686;2023-03-13T05:17:18;3.72;;;1.55;;
57593;SDS011;43423;46.510;6.686;2023-03-13T05:19:43;3.28;;;1.38;;
57593;SDS011;43423;46.510;6.686;2023-03-13T05:22:09;4.13;;;1.45;;
57593;SDS011;43423;46.510;6.686;2023-03-13T05:24:34;1.85;;;1.65;;
57593;SDS011;43423;46.510;6.686;2023-03-13T05:27:00;2.92;;;1.48;;
57593;SDS011;43423;46.510;6.686;2023-03-13T05:29:26;5.05;;;1.35;;
57593;SDS011;43423;46.510;6.686;2023-03-13T05:31:52;2.83;;;1.55;;
57593;SDS011;43423;46.510;6.686;2023-03-13T05:34:17;2.97;;;1.45;;
57593;SDS011;43423;46.510;6.686;2023-03-13T05:36:43;4.75;;;1.40;;
57593;SDS011;43423;46.510;6.686;2023-03-13T05:39:09;4.88;;;1.58;;
57593;SDS011;43423;46.510;6.686;2023-03-13T05:41:34;2.90;;;1.30;;
57593;SDS011;43423;46.510;6.686;2023-03-13T05:44:00;3.72;;;1.55;;
57593;SDS011;43423;46.510;6.686;2023-03-13T05:46:25;3.35;;;1.50;;
57593;SDS011;43423;46.510;6.686;2023-03-13T05:48:51;2.78;;;1.58;;
57593;SDS011;43423;46.510;6.686;2023-03-13T05:51:17;4.82;;;1.27;;
57593;SDS011;43423;46.510;6.686;2023-03-13T05:53:43;1.92;;;1.10;;
57593;SDS011;43423;46.510;6.686;2023-03-13T05:56:08;1.88;;;1.10;;
57593;SDS011;43423;46.510;6.686;2023-03-13T05:58:34;3.35;;;1.13;;
57593;SDS011;43423;46.510;6.686;2023-03-13T06:01:07;1.33;;;1.20;;
57593;SDS011;43423;46.510;6.686;2023-03-13T06:03:34;2.70;;;1.30;;
57593;SDS011;43423;46.510;6.686;2023-03-13T06:06:00;1.70;;;1.02;;
57593;SDS011;43423;46.510;6.686;2023-03-13T06:08:25;1.70;;;1.20;;
57593;SDS011;43423;46.510;6.686;2023-03-13T06:10:52;2.00;;;1.30;;
57593;SDS011;43423;46.510;6.686;2023-03-13T06:13:17;1.63;;;0.98;;
57593;SDS011;43423;46.510;6.686;2023-03-13T06:15:43;1.88;;;1.25;;
57593;SDS011;43423;46.510;6.686;2023-03-13T06:18:15;2.55;;;1.30;;
57593;SDS011;43423;46.510;6.686;2023-03-13T06:20:40;1.23;;;1.13;;
57593;SDS011;43423;46.510;6.686;2023-03-13T06:23:06;2.33;;;1.45;;
57593;SDS011;43423;46.510;6.686;2023-03-13T06:25:33;3.13;;;1.30;;
57593;SDS011;43423;46.510;6.686;2023-03-13T06:27:59;1.80;;;1.17;;
57593;SDS011;43423;46.510;6.686;2023-03-13T06:30:24;2.35;;;1.30;;
57593;SDS011;43423;46.510;6.686;2023-03-13T06:32:50;1.75;;;1.38;;
57593;SDS011;43423;46.510;6.686;2023-03-13T06:35:15;4.65;;;1.35;;
57593;SDS011;43423;46.510;6.686;2023-03-13T06:37:41;3.30;;;1.20;;
57593;SDS011;43423;46.510;6.686;2023-03-13T06:40:06;1.23;;;1.00;;
57593;SDS011;43423;46.510;6.686;2023-03-13T06:42:32;1.67;;;1.05;;
57593;SDS011;43423;46.510;6.686;2023-03-13T06:44:58;3.65;;;1.17;;
57593;SDS011;43423;46.510;6.686;2023-03-13T06:47:23;1.48;;;1.00;;
57593;SDS011;43423;46.510;6.686;2023-03-13T06:49:49;1.10;;;0.90;;
57593;SDS011;43423;46.510;6.686;2023-03-13T06:52:14;2.40;;;1.40;;
57593;SDS011;43423;46.510;6.686;2023-03-13T06:54:40;1.60;;;1.02;;
57593;SDS011;43423;46.510;6.686;2023-03-13T06:57:05;1.10;;;1.00;;
57593;SDS011;43423;46.510;6.686;2023-03-13T06:59:31;2.25;;;1.13;;
57593;SDS011;43423;46.510;6.686;2023-03-13T07:01:57;4.65;;;1.17;;
57593;SDS011;43423;46.510;6.686;2023-03-13T07:04:22;4.25;;;1.33;;
57593;SDS011;43423;46.510;6.686;2023-03-13T07:06:48;1.67;;;0.98;;
57593;SDS011;43423;46.510;6.686;2023-03-13T07:09:15;2.70;;;1.00;;
57593;SDS011;43423;46.510;6.686;2023-03-13T07:11:41;1.60;;;1.00;;
57593;SDS011;43423;46.510;6.686;2023-03-13T07:14:06;6.47;;;2.35;;
57593;SDS011;43423;46.510;6.686;2023-03-13T07:16:32;4.20;;;1.25;;
57593;SDS011;43423;46.510;6.686;2023-03-13T07:18:57;5.70;;;1.50;;
57593;SDS011;43423;46.510;6.686;2023-03-13T07:21:23;1.58;;;1.10;;
57593;SDS011;43423;46.510;6.686;2023-03-13T07:23:48;2.70;;;1.00;;
57593;SDS011;43423;46.510;6.686;2023-03-13T07:26:14;2.30;;;0.95;;
57593;SDS011;43423;46.510;6.686;2023-03-13T07:28:40;8.13;;;1.30;;
57593;SDS011;43423;46.510;6.686;2023-03-13T07:31:07;1.58;;;1.00;;
57593;SDS011;43423;46.510;6.686;2023-03-13T07:33:41;1.67;;;1.00;;
57593;SDS011;43423;46.510;6.686;2023-03-13T07:36:08;1.60;;;1.20;;
57593;SDS011;43423;46.510;6.686;2023-03-13T07:38:34;2.63;;;1.17;;
57593;SDS011;43423;46.510;6.686;2023-03-13T07:41:00;5.13;;;1.27;;
57593;SDS011;43423;46.510;6.686;2023-03-13T07:43:26;2.67;;;1.23;;
57593;SDS011;43423;46.510;6.686;2023-03-13T07:45:57;0.98;;;0.85;;
57593;SDS011;43423;46.510;6.686;2023-03-13T07:48:30;2.50;;;1.25;;
57593;SDS011;43423;46.510;6.686;2023-03-13T07:50:58;1.98;;;1.10;;
57593;SDS011;43423;46.510;6.686;2023-03-13T07:53:24;2.42;;;1.08;;
57593;SDS011;43423;46.510;6.686;2023-03-13T07:55:55;3.75;;;1.27;;
57593;SDS011;43423;46.510;6.686;2023-03-13T07:58:25;2.25;;;1.25;;
57593;SDS011;43423;46.510;6.686;2023-03-13T08:00:52;1.00;;;0.85;;
57593;SDS011;43423;46.510;6.686;2023-03-13T08:03:18;1.55;;;0.95;;
57593;SDS011;43423;46.510;6.686;2023-03-13T08:05:44;2.42;;;0.90;;
57593;SDS011;43423;46.510;6.686;2023-03-13T08:08:09;4.68;;;1.15;;
57593;SDS011;43423;46.510;6.686;2023-03-13T08:10:36;1.95;;;1.00;;
57593;SDS011;43423;46.510;6.686;2023-03-13T08:13:01;1.52;;;0.80;;
57593;SDS011;43423;46.510;6.686;2023-03-13T08:15:27;1.77;;;1.13;;
57593;SDS011;43423;46.510;6.686;2023-03-13T08:17:53;1.30;;;0.77;;
57593;SDS011;43423;46.510;6.686;2023-03-13T08:20:19;1.38;;;0.68;;
57593;SDS011;43423;46.510;6.686;2023-03-13T08:22:45;1.00;;;0.80;;
57593;SDS011;43423;46.510;6.686;2023-03-13T08:25:11;1.23;;;0.80;;
57593;SDS011;43423;46.510;6.686;2023-03-13T08:27:37;1.30;;;0.70;;
57593;SDS011;43423;46.510;6.686;2023-03-13T08:30:03;1.50;;;0.90;;
57593;SDS011;43423;46.510;6.686;2023-03-13T08:32:31;1.48;;;0.73;;
57593;SDS011;43423;46.510;6.686;2023-03-13T08:34:57;1.30;;;0.65;;
57593;SDS011;43423;46.510;6.686;2023-03-13T08:37:23;1.08;;;0.75;;
57593;SDS011;43423;46.510;6.686;2023-03-13T08:39:48;1.45;;;0.65;;
57593;SDS011;43423;46.510;6.686;2023-03-13T08:42:14;2.22;;;0.85;;
57593;SDS011;43423;46.510;6.686;2023-03-13T08:44:39;1.80;;;0.77;;
57593;SDS011;43423;46.510;6.686;2023-03-13T08:47:05;1.65;;;0.70;;
57593;SDS011;43423;46.510;6.686;2023-03-13T08:49:31;0.60;;;0.50;;
57593;SDS011;43423;46.510;6.686;2023-03-13T08:51:57;0.47;;;0.47;;
57593;SDS011;43423;46.510;6.686;2023-03-13T08:54:23;1.23;;;0.77;;
57593;SDS011;43423;46.510;6.686;2023-03-13T08:56:48;3.08;;;0.85;;
57593;SDS011;43423;46.510;6.686;2023-03-13T08:59:14;2.22;;;0.85;;
57593;SDS011;43423;46.510;6.686;2023-03-13T09:01:39;1.10;;;0.90;;
57593;SDS011;43423;46.510;6.686;2023-03-13T09:04:05;3.40;;;0.80;;
57593;SDS011;43423;46.510;6.686;2023-03-13T09:06:32;1.02;;;0.80;;
57593;SDS011;43423;46.510;6.686;2023-03-13T09:08:59;5.22;;;0.80;;
57593;SDS011;43423;46.510;6.686;2023-03-13T09:11:25;1.55;;;0.60;;
57593;SDS011;43423;46.510;6.686;2023-03-13T09:13:51;1.15;;;0.70;;
57593;SDS011;43423;46.510;6.686;2023-03-13T09:16:20;1.05;;;0.57;;
57593;SDS011;43423;46.510;6.686;2023-03-13T09:18:47;1.95;;;0.82;;
57593;SDS011;43423;46.510;6.686;2023-03-13T09:21:17;1.90;;;0.77;;
57593;SDS011;43423;46.510;6.686;2023-03-13T09:23:45;1.33;;;0.60;;
57593;SDS011;43423;46.510;6.686;2023-03-13T09:26:11;1.13;;;0.90;;
57593;SDS011;43423;46.510;6.686;2023-03-13T09:28:38;0.85;;;0.77;;
57593;SDS011;43423;46.510;6.686;2023-03-13T09:31:07;1.52;;;0.93;;
57593;SDS011;43423;46.510;6.686;2023-03-13T09:33:37;0.88;;;0.70;;
57593;SDS011;43423;46.510;6.686;2023-03-13T09:36:03;2.20;;;0.70;;
57593;SDS011;43423;46.510;6.686;2023-03-13T09:38:30;2.75;;;0.90;;
57593;SDS011;43423;46.510;6.686;2023-03-13T09:40:59;1.33;;;0.70;;
57593;SDS011;43423;46.510;6.686;2023-03-13T09:43:45;1.92;;;0.65;;
57593;SDS011;43423;46.510;6.686;2023-03-13T09:46:17;0.50;;;0.50;;
57593;SDS011;43423;46.510;6.686;2023-03-13T09:49:07;2.95;;;0.70;;
57593;SDS011;43423;46.510;6.686;2023-03-13T09:51:38;1.17;;;0.70;;
57593;SDS011;43423;46.510;6.686;2023-03-13T09:54:13;1.95;;;0.90;;
57593;SDS011;43423;46.510;6.686;2023-03-13T09:56:49;2.20;;;0.65;;
57593;SDS011;43423;46.510;6.686;2023-03-13T09:59:23;1.63;;;0.73;;
57593;SDS011;43423;46.510;6.686;2023-03-13T10:01:57;1.50;;;0.55;;
57593;SDS011;43423;46.510;6.686;2023-03-13T10:04:28;1.58;;;0.60;;
57593;SDS011;43423;46.510;6.686;2023-03-13T10:06:59;1.65;;;0.70;;
57593;SDS011;43423;46.510;6.686;2023-03-13T10:09:30;2.55;;;1.20;;
57593;SDS011;43423;46.510;6.686;2023-03-13T10:14:42;2.17;;;0.90;;
57593;SDS011;43423;46.510;6.686;2023-03-13T10:17:50;1.88;;;0.60;;
57593;SDS011;43423;46.510;6.686;2023-03-13T10:22:34;3.35;;;1.23;;
57593;SDS011;43423;46.510;6.686;2023-03-13T10:25:10;1.65;;;0.77;;
57593;SDS011;43423;46.510;6.686;2023-03-13T10:27:50;4.88;;;1.00;;
57593;SDS011;43423;46.510;6.686;2023-03-13T10:30:21;3.83;;;1.10;;
57593;SDS011;43423;46.510;6.686;2023-03-13T10:32:49;2.60;;;0.80;;
57593;SDS011;43423;46.510;6.686;2023-03-13T10:35:22;1.65;;;0.73;;
57593;SDS011;43423;46.510;6.686;2023-03-13T10:37:49;4.68;;;1.42;;
57593;SDS011;43423;46.510;6.686;2023-03-13T10:40:22;1.00;;;0.70;;
57593;SDS011;43423;46.510;6.686;2023-03-13T10:42:50;3.13;;;1.08;;
57593;SDS011;43423;46.510;6.686;2023-03-13T10:45:17;1.38;;;0.85;;
57593;SDS011;43423;46.510;6.686;2023-03-13T10:47:45;4.50;;;1.00;;
57593;SDS011;43423;46.510;6.686;2023-03-13T10:50:20;2.30;;;0.75;;
57593;SDS011;43423;46.510;6.686;2023-03-13T10:52:50;1.27;;;0.70;;
57593;SDS011;43423;46.510;6.686;2023-03-13T10:55:20;1.70;;;0.88;;
57593;SDS011;43423;46.510;6.686;2023-03-13T10:58:00;2.38;;;0.95;;
57593;SDS011;43423;46.510;6.686;2023-03-13T11:03:04;4.97;;;0.93;;
57593;SDS011;43423;46.510;6.686;2023-03-13T11:05:39;2.75;;;0.90;;
57593;SDS011;43423;46.510;6.686;2023-03-13T11:10:50;2.63;;;1.10;;
57593;SDS011;43423;46.510;6.686;2023-03-13T11:13:35;1.40;;;0.80;;
57593;SDS011;43423;46.510;6.686;2023-03-13T11:16:05;1.50;;;0.90;;
57593;SDS011;43423;46.510;6.686;2023-03-13T11:18:45;3.33;;;0.88;;
57593;SDS011;43423;46.510;6.686;2023-03-13T11:24:30;3.58;;;1.05;;
57593;SDS011;43423;46.510;6.686;2023-03-13T11:30:19;4.90;;;0.98;;
57593;SDS011;43423;46.510;6.686;2023-03-13T11:32:50;3.53;;;0.85;;
57593;SDS011;43423;46.510;6.686;2023-03-13T11:37:56;0.95;;;0.65;;
57593;SDS011;43423;46.510;6.686;2023-03-13T11:46:30;3.28;;;1.13;;
57593;SDS011;43423;46.510;6.686;2023-03-13T11:48:59;1.88;;;0.90;;
57593;SDS011;43423;46.510;6.686;2023-03-13T11:51:41;3.75;;;1.10;;
57593;SDS011;43423;46.510;6.686;2023-03-13T11:57:01;1.08;;;0.73;;
57593;SDS011;43423;46.510;6.686;2023-03-13T11:59:36;1.17;;;0.80;;
57593;SDS011;43423;46.510;6.686;2023-03-13T12:04:42;1.25;;;0.88;;
57593;SDS011;43423;46.510;6.686;2023-03-13T12:09:46;1.33;;;0.80;;
57593;SDS011;43423;46.510;6.686;2023-03-13T12:17:56;3.22;;;1.65;;
57593;SDS011;43423;46.510;6.686;2023-03-13T12:20:29;2.83;;;1.17;;
57593;SDS011;43423;46.510;6.686;2023-03-13T12:30:51;1.05;;;0.95;;
57593;SDS011;43423;46.510;6.686;2023-03-13T12:33:25;1.10;;;0.75;;
57593;SDS011;43423;46.510;6.686;2023-03-13T12:36:08;2.88;;;1.05;;
57593;SDS011;43423;46.510;6.686;2023-03-13T12:38:40;1.35;;;1.20;;
57593;SDS011;43423;46.510;6.686;2023-03-13T12:41:18;1.90;;;0.82;;
57593;SDS011;43423;46.510;6.686;2023-03-13T12:43:46;4.45;;;1.20;;
57593;SDS011;43423;46.510;6.686;2023-03-13T12:46:20;3.75;;;1.05;;
57593;SDS011;43423;46.510;6.686;2023-03-13T12:54:32;6.05;;;1.23;;
57593;SDS011;43423;46.510;6.686;2023-03-13T12:59:52;3.80;;;1.17;;
57593;SDS011;43423;46.510;6.686;2023-03-13T13:02:23;3.97;;;1.20;;
57593;SDS011;43423;46.510;6.686;2023-03-13T13:04:52;2.88;;;0.85;;
57593;SDS011;43423;46.510;6.686;2023-03-13T13:07:27;1.52;;;1.00;;
57593;SDS011;43423;46.510;6.686;2023-03-13T13:12:35;0.88;;;0.70;;
57593;SDS011;43423;46.510;6.686;2023-03-13T13:17:48;2.55;;;1.00;;
57593;SDS011;43423;46.510;6.686;2023-03-13T13:22:56;1.60;;;1.10;;
57593;SDS011;43423;46.510;6.686;2023-03-13T13:25:40;2.15;;;0.90;;
57593;SDS011;43423;46.510;6.686;2023-03-13T13:30:45;2.75;;;0.85;;
57593;SDS011;43423;46.510;6.686;2023-03-13T13:35:44;3.47;;;1.15;;
57593;SDS011;43423;46.510;6.686;2023-03-13T13:38:30;1.30;;;0.85;;
57593;SDS011;43423;46.510;6.686;2023-03-13T13:51:30;1.40;;;0.93;;
57593;SDS011;43423;46.510;6.686;2023-03-13T13:53:58;2.83;;;0.90;;
57593;SDS011;43423;46.510;6.686;2023-03-13T14:12:38;2.80;;;0.85;;
57593;SDS011;43423;46.510;6.686;2023-03-13T14:15:15;2.42;;;1.17;;
57593;SDS011;43423;46.510;6.686;2023-03-13T14:20:17;4.45;;;1.05;;
57593;SDS011;43423;46.510;6.686;2023-03-13T14:22:48;0.93;;;0.70;;
57593;SDS011;43423;46.510;6.686;2023-03-13T14:25:15;3.67;;;0.85;;
57593;SDS011;43423;46.510;6.686;2023-03-13T14:27:42;1.92;;;0.80;;
57593;SDS011;43423;46.510;6.686;2023-03-13T14:30:09;1.95;;;0.80;;
57593;SDS011;43423;46.510;6.686;2023-03-13T14:32:36;1.67;;;1.20;;
57593;SDS011;43423;46.510;6.686;2023-03-13T14:35:03;1.27;;;0.73;;
57593;SDS011;43423;46.510;6.686;2023-03-13T14:37:36;6.28;;;1.23;;
57593;SDS011;43423;46.510;6.686;2023-03-13T14:42:58;2.20;;;1.00;;
57593;SDS011;43423;46.510;6.686;2023-03-13T14:45:27;3.08;;;0.73;;
57593;SDS011;43423;46.510;6.686;2023-03-13T14:47:53;0.85;;;0.70;;
57593;SDS011;43423;46.510;6.686;2023-03-13T14:50:24;2.72;;;0.90;;
57593;SDS011;43423;46.510;6.686;2023-03-13T14:53:23;1.30;;;1.00;;
57593;SDS011;43423;46.510;6.686;2023-03-13T14:55:43;2.47;;;0.80;;
57593;SDS011;43423;46.510;6.686;2023-03-13T15:00:55;4.22;;;0.80;;
57593;SDS011;43423;46.510;6.686;2023-03-13T15:03:27;1.27;;;1.00;;
57593;SDS011;43423;46.510;6.686;2023-03-13T15:06:02;1.48;;;0.85;;
57593;SDS011;43423;46.510;6.686;2023-03-13T15:08:48;1.83;;;1.05;;
57593;SDS011;43423;46.510;6.686;2023-03-13T15:11:33;1.10;;;0.80;;
57593;SDS011;43423;46.510;6.686;2023-03-13T15:13:58;2.22;;;0.73;;
57593;SDS011;43423;46.510;6.686;2023-03-13T15:16:25;1.63;;;0.77;;
57593;SDS011;43423;46.510;6.686;2023-03-13T15:18:52;1.73;;;0.80;;
57593;SDS011;43423;46.510;6.686;2023-03-13T15:21:20;2.15;;;0.65;;
57593;SDS011;43423;46.510;6.686;2023-03-13T15:26:17;4.00;;;0.90;;
57593;SDS011;43423;46.510;6.686;2023-03-13T15:28:42;1.05;;;0.77;;
57593;SDS011;43423;46.510;6.686;2023-03-13T15:31:09;3.15;;;0.80;;
57593;SDS011;43423;46.510;6.686;2023-03-13T15:33:37;2.58;;;0.90;;
57593;SDS011;43423;46.510;6.686;2023-03-13T15:36:02;3.65;;;1.00;;
57593;SDS011;43423;46.510;6.686;2023-03-13T15:38:28;5.65;;;1.00;;
57593;SDS011;43423;46.510;6.686;2023-03-13T15:40:54;2.10;;;1.15;;
57593;SDS011;43423;46.510;6.686;2023-03-13T15:43:20;4.72;;;1.25;;
57593;SDS011;43423;46.510;6.686;2023-03-13T15:45:47;1.63;;;1.00;;
57593;SDS011;43423;46.510;6.686;2023-03-13T15:48:20;1.13;;;1.02;;
57593;SDS011;43423;46.510;6.686;2023-03-13T15:50:50;2.10;;;1.10;;
57593;SDS011;43423;46.510;6.686;2023-03-13T15:53:18;2.70;;;1.05;;
57593;SDS011;43423;46.510;6.686;2023-03-13T15:55:46;0.70;;;0.70;;
57593;SDS011;43423;46.510;6.686;2023-03-13T15:58:13;3.35;;;0.80;;
57593;SDS011;43423;46.510;6.686;2023-03-13T16:00:39;1.20;;;0.60;;
57593;SDS011;43423;46.510;6.686;2023-03-13T16:03:08;1.15;;;0.73;;
57593;SDS011;43423;46.510;6.686;2023-03-13T16:05:39;5.53;;;1.10;;
57593;SDS011;43423;46.510;6.686;2023-03-13T16:08:04;3.25;;;1.00;;
57593;SDS011;43423;46.510;6.686;2023-03-13T16:10:30;1.83;;;0.93;;
57593;SDS011;43423;46.510;6.686;2023-03-13T16:12:56;1.60;;;0.88;;
57593;SDS011;43423;46.510;6.686;2023-03-13T16:15:22;3.03;;;1.30;;
57593;SDS011;43423;46.510;6.686;2023-03-13T16:17:48;1.77;;;0.95;;
57593;SDS011;43423;46.510;6.686;2023-03-13T16:20:17;0.80;;;0.70;;
57593;SDS011;43423;46.510;6.686;2023-03-13T16:22:45;1.55;;;0.63;;
57593;SDS011;43423;46.510;6.686;2023-03-13T16:25:12;3.25;;;1.00;;
57593;SDS011;43423;46.510;6.686;2023-03-13T16:27:38;0.90;;;0.60;;
57593;SDS011;43423;46.510;6.686;2023-03-13T16:32:46;2.33;;;0.95;;
57593;SDS011;43423;46.510;6.686;2023-03-13T16:35:12;7.35;;;1.20;;
57593;SDS011;43423;46.510;6.686;2023-03-13T16:37:38;2.88;;;1.13;;
57593;SDS011;43423;46.510;6.686;2023-03-13T16:40:17;0.70;;;0.70;;
57593;SDS011;43423;46.510;6.686;2023-03-13T16:42:44;1.60;;;1.02;;
57593;SDS011;43423;46.510;6.686;2023-03-13T16:45:11;1.95;;;1.00;;
57593;SDS011;43423;46.510;6.686;2023-03-13T16:47:37;1.70;;;0.70;;
57593;SDS011;43423;46.510;6.686;2023-03-13T16:52:48;2.78;;;1.00;;
57593;SDS011;43423;46.510;6.686;2023-03-13T16:55:14;3.03;;;1.10;;
57593;SDS011;43423;46.510;6.686;2023-03-13T16:57:40;2.15;;;1.10;;